createdAt,value
2022-08-31T00:03:43.949Z,15.98
2022-08-31T00:08:47.779Z,14.85
2022-08-31T00:13:51.267Z,13.33
2022-08-31T00:18:56.981Z,17.73
2022-08-31T00:24:02.917Z,17.75
2022-08-31T00:29:06.540Z,14.82
2022-08-31T00:34:11.846Z,17.83
2022-08-31T00:39:15.823Z,17.00
2022-08-31T00:44:19.437Z,12.80
2022-08-31T00:49:28.403Z,16.97
2022-08-31T00:54:35.914Z,15.65
2022-08-31T00:59:42.702Z,19.77
2022-08-31T01:04:47.518Z,16.33
2022-08-31T01:09:55.429Z,14.35
2022-08-31T01:15:01.139Z,19.42
2022-08-31T01:20:15.449Z,18.00
2022-08-31T01:25:21.308Z,16.73
2022-08-31T01:30:27.380Z,16.70
2022-08-31T01:35:31.946Z,17.35
2022-08-31T01:40:45.911Z,17.73
2022-08-31T01:45:49.855Z,16.77
2022-08-31T01:50:53.331Z,16.30
2022-08-31T01:55:58.211Z,16.70
2022-08-31T02:01:01.823Z,18.73
2022-08-31T02:06:09.736Z,16.43
2022-08-31T02:11:14.586Z,15.63
2022-08-31T02:16:18.422Z,16.08
2022-08-31T02:21:21.973Z,16.63
2022-08-31T02:26:26.910Z,17.60
2022-08-31T02:31:30.407Z,17.85
2022-08-31T02:36:35.958Z,16.63
2022-08-31T02:41:41.727Z,19.70
2022-08-31T02:46:45.425Z,15.57
2022-08-31T02:51:49.376Z,16.97
2022-08-31T02:56:54.758Z,17.15
2022-08-31T03:01:58.510Z,14.60
2022-08-31T03:07:02.065Z,13.07
2022-08-31T03:12:07.274Z,14.32
2022-08-31T03:17:10.876Z,13.85
2022-08-31T03:22:15.152Z,15.60
2022-08-31T03:27:20.373Z,15.13
2022-08-31T03:32:23.910Z,13.27
2022-08-31T03:37:27.860Z,14.98
2022-08-31T03:42:32.690Z,15.32
2022-08-31T03:47:37.160Z,12.82
2022-08-31T03:52:48.247Z,11.05
2022-08-31T03:57:53.054Z,12.27
2022-08-31T04:03:00.202Z,11.25
2022-08-31T04:08:04.194Z,14.05
2022-08-31T04:13:09.294Z,9.55
2022-08-31T04:18:14.031Z,9.77
2022-08-31T04:23:17.582Z,11.73
2022-08-31T04:28:23.340Z,12.27
2022-08-31T04:33:27.037Z,10.48
2022-08-31T04:38:32.115Z,10.70
2022-08-31T04:43:37.503Z,8.90
2022-08-31T04:48:41.505Z,11.40
2022-08-31T04:53:45.791Z,10.07
2022-08-31T05:03:57.685Z,10.63
2022-08-31T05:09:03.999Z,11.50
2022-08-31T05:14:10.194Z,10.13
2022-08-31T05:19:13.722Z,10.23
2022-08-31T05:24:20.382Z,9.37
2022-08-31T05:29:27.341Z,9.98
2022-08-31T05:34:31.138Z,8.45
2022-08-31T05:39:34.612Z,10.20
2022-08-31T05:44:39.517Z,6.47
2022-08-31T05:49:45.287Z,7.22
2022-08-31T05:54:48.722Z,6.60
2022-08-31T05:59:53.641Z,6.23
2022-08-31T06:04:58.097Z,6.88
2022-08-31T06:10:01.758Z,5.47
2022-08-31T06:15:11.294Z,5.28
2022-08-31T06:20:17.727Z,5.72
2022-08-31T06:25:23.675Z,5.63
2022-08-31T06:30:29.805Z,6.03
2022-08-31T06:35:33.486Z,6.63
2022-08-31T06:40:36.964Z,7.55
2022-08-31T06:45:42.015Z,4.93
2022-08-31T06:50:45.537Z,8.25
2022-08-31T06:55:49.239Z,7.95
2022-08-31T07:00:54.203Z,5.15
2022-08-31T07:05:57.985Z,4.35
2022-08-31T07:11:01.411Z,4.30
2022-08-31T07:16:08.473Z,4.93
2022-08-31T07:21:14.366Z,6.35
2022-08-31T07:26:22.071Z,7.28
2022-08-31T07:31:44.898Z,5.80
2022-08-31T07:37:09.154Z,5.88
2022-08-31T07:42:15.933Z,6.10
2022-08-31T07:47:22.580Z,4.03
2022-08-31T07:52:28.964Z,5.28
2022-08-31T07:57:37.367Z,3.75
2022-08-31T08:02:52.720Z,4.40
2022-08-31T08:08:06.634Z,3.25
2022-08-31T08:13:13.529Z,3.63
2022-08-31T08:23:26.850Z,5.60
2022-08-31T08:28:39.613Z,5.38
2022-08-31T08:33:46.893Z,4.30
2022-08-31T08:38:55.160Z,3.90
2022-08-31T08:44:02.127Z,3.80
2022-08-31T08:49:50.852Z,3.80
2022-08-31T08:59:48.411Z,5.47
2022-08-31T09:05:09.134Z,3.33
2022-08-31T09:10:23.661Z,3.55
2022-08-31T09:15:41.787Z,3.03
2022-08-31T09:21:02.534Z,3.65
2022-08-31T09:26:08.585Z,3.20
2022-08-31T09:31:32.889Z,2.70
2022-08-31T09:36:41.413Z,3.53
2022-08-31T09:41:45.663Z,3.15
2022-08-31T09:46:51.935Z,2.17
2022-08-31T09:52:17.852Z,3.17
2022-08-31T09:57:46.423Z,2.85
2022-08-31T10:02:58.312Z,2.50
2022-08-31T10:08:11.521Z,2.35
2022-08-31T10:13:19.488Z,3.10
2022-08-31T10:18:30.376Z,3.13
2022-08-31T10:23:45.143Z,2.35
2022-08-31T10:28:53.537Z,2.30
2022-08-31T10:34:19.024Z,2.53
2022-08-31T10:39:35.345Z,2.70
2022-08-31T10:44:49.925Z,3.15
2022-08-31T10:49:56.315Z,2.50
2022-08-31T10:55:10.217Z,1.50
2022-08-31T11:00:32.126Z,2.83
2022-08-31T11:05:40.548Z,2.28
2022-08-31T11:10:50.198Z,2.00
2022-08-31T11:16:11.692Z,2.33
2022-08-31T11:21:39.560Z,2.50
2022-08-31T11:26:55.986Z,2.78
2022-08-31T11:32:07.156Z,5.78
2022-08-31T11:37:13.393Z,2.20
2022-08-31T11:43:01.522Z,2.92
2022-08-31T11:48:06.990Z,5.80
2022-08-31T11:53:25.496Z,2.08
2022-08-31T11:58:34.903Z,2.13
2022-08-31T12:03:50.757Z,2.95
2022-08-31T12:09:11.383Z,1.63
2022-08-31T12:14:24.904Z,1.77
2022-08-31T12:20:02.735Z,1.37
2022-08-31T12:25:19.213Z,4.38
2022-08-31T12:30:26.817Z,1.45
2022-08-31T12:35:32.975Z,2.47
2022-08-31T12:40:43.100Z,2.78
2022-08-31T12:46:22.075Z,4.30
2022-08-31T12:51:40.002Z,2.63
2022-08-31T12:56:54.570Z,3.47
2022-08-31T13:02:01.639Z,1.73
2022-08-31T13:07:19.197Z,4.95
2022-08-31T13:12:24.807Z,2.20
2022-08-31T13:17:31.334Z,1.83
2022-08-31T13:22:41.441Z,6.03
2022-08-31T13:27:50.329Z,1.80
2022-08-31T13:32:55.026Z,3.45
2022-08-31T13:38:05.465Z,3.95
2022-08-31T13:43:11.412Z,3.03
2022-08-31T13:48:20.536Z,1.83
2022-08-31T13:53:45.123Z,1.85
2022-08-31T14:03:58.254Z,3.55
2022-08-31T14:09:17.094Z,3.90
2022-08-31T14:14:30.044Z,3.20
2022-08-31T14:19:38.976Z,2.97
2022-08-31T14:24:44.954Z,2.58
2022-08-31T14:29:48.436Z,3.72
2022-08-31T14:34:53.143Z,2.30
2022-08-31T14:40:07.136Z,2.95
2022-08-31T14:45:18.814Z,2.30
2022-08-31T14:50:26.593Z,3.15
2022-08-31T14:55:31.740Z,1.52
2022-08-31T15:00:40.199Z,1.35
2022-08-31T15:05:44.195Z,2.08
2022-08-31T15:10:54.839Z,2.35
2022-08-31T15:15:58.856Z,2.03
2022-08-31T15:21:04.454Z,2.92
2022-08-31T15:26:17.493Z,1.83
2022-08-31T15:31:23.868Z,1.90
2022-08-31T15:36:28.547Z,2.95
2022-08-31T15:41:33.467Z,2.85
2022-08-31T15:46:54.504Z,2.05
2022-08-31T15:52:01.434Z,1.38
2022-08-31T15:57:08.184Z,4.23
2022-08-31T16:02:14.941Z,3.92
2022-08-31T16:07:22.234Z,1.42
2022-08-31T16:12:28.292Z,1.88
2022-08-31T16:17:31.975Z,2.00
2022-08-31T16:22:35.579Z,1.52
2022-08-31T16:27:41.047Z,2.85
2022-08-31T16:32:46.462Z,3.53
2022-08-31T16:37:52.985Z,1.58
2022-08-31T16:42:59.540Z,3.65
2022-08-31T16:48:20.978Z,1.30
2022-08-31T16:53:24.737Z,2.38
2022-08-31T16:58:51.299Z,2.23
2022-08-31T17:03:58.292Z,2.35
2022-08-31T17:09:05.865Z,3.60
2022-08-31T17:14:11.856Z,2.00
2022-08-31T17:19:16.369Z,2.22
2022-08-31T17:29:30.903Z,2.05
2022-08-31T17:34:37.784Z,3.75
2022-08-31T17:39:43.101Z,2.33
2022-08-31T17:44:50.909Z,2.13
2022-08-31T17:49:55.289Z,3.45
2022-08-31T17:55:00.302Z,3.42
2022-08-31T18:00:07.477Z,1.80
2022-08-31T18:05:12.375Z,2.38
2022-08-31T18:10:16.062Z,2.65
2022-08-31T18:15:21.542Z,2.33
2022-08-31T18:20:25.212Z,1.80
2022-08-31T18:25:29.148Z,3.30
2022-08-31T18:30:41.501Z,1.65
2022-08-31T18:35:46.455Z,1.92
2022-08-31T18:41:03.736Z,2.13
2022-08-31T18:46:08.869Z,1.58
2022-08-31T18:51:13.631Z,2.45
2022-08-31T18:56:20.837Z,2.42
2022-08-31T19:01:27.621Z,1.70
2022-08-31T19:06:34.802Z,2.65
2022-08-31T19:11:51.407Z,2.63
2022-08-31T19:17:01.671Z,2.28
2022-08-31T19:22:08.764Z,1.52
2022-08-31T19:27:14.025Z,1.40
2022-08-31T19:32:19.224Z,2.05
2022-08-31T19:37:23.012Z,1.88
2022-08-31T19:47:54.071Z,3.05
2022-08-31T19:52:57.523Z,1.38
2022-08-31T19:58:01.056Z,1.83
2022-08-31T20:03:06.111Z,2.25
2022-08-31T20:08:10.858Z,3.13
2022-08-31T20:13:14.637Z,2.15
2022-08-31T20:18:20.242Z,2.50
2022-08-31T20:23:24.599Z,3.65
2022-08-31T20:28:29.187Z,2.53
2022-08-31T20:33:36.118Z,2.00
2022-08-31T20:38:41.365Z,2.65
2022-08-31T20:43:45.322Z,2.67
2022-08-31T20:49:07.629Z,1.77
2022-08-31T20:54:11.152Z,2.15
2022-08-31T20:59:14.651Z,3.10
2022-08-31T21:04:19.943Z,3.20
2022-08-31T21:09:24.543Z,2.85
2022-08-31T21:14:29.527Z,3.03
2022-08-31T21:19:36.263Z,3.05
2022-08-31T21:24:43.295Z,1.85
2022-08-31T21:29:50.836Z,1.92
2022-08-31T21:34:58.601Z,2.33
2022-08-31T21:40:02.334Z,1.70
2022-08-31T21:45:07.613Z,3.70
2022-08-31T21:50:13.769Z,2.40
2022-08-31T21:55:18.160Z,1.75
2022-08-31T22:00:29.231Z,2.38
2022-08-31T22:05:40.055Z,2.15
2022-08-31T22:10:44.707Z,3.30
2022-08-31T22:20:53.186Z,3.17
2022-08-31T22:25:56.697Z,2.58
2022-08-31T22:31:02.487Z,1.65
2022-08-31T22:36:08.520Z,3.47
2022-08-31T22:41:16.902Z,3.42
2022-08-31T22:46:21.693Z,3.28
2022-08-31T22:51:27.176Z,1.42
2022-08-31T22:56:33.372Z,2.05
2022-08-31T23:01:38.776Z,4.68
2022-08-31T23:06:43.894Z,1.70
2022-08-31T23:11:47.442Z,2.55
2022-08-31T23:16:59.371Z,2.75
2022-08-31T23:22:09.503Z,1.70
2022-08-31T23:27:15.051Z,2.72
2022-08-31T23:32:20.376Z,1.70
2022-08-31T23:37:27.097Z,1.92
2022-08-31T23:42:30.605Z,1.48
2022-08-31T23:47:34.660Z,1.98
2022-08-31T23:52:41.923Z,2.05
2022-08-31T23:57:47.742Z,1.92
